sensor_id;sensor_type;location;lat;lon;timestamp;temperature;humidity
46590;DHT22;32313;48.722;9.362;2022-09-09T00:00:34;10.80;99.90
46590;DHT22;32313;48.722;9.362;2022-09-09T00:03:24;10.80;99.90
46590;DHT22;32313;48.722;9.362;2022-09-09T00:06:28;10.90;99.90
46590;DHT22;32313;48.722;9.362;2022-09-09T00:11:36;10.90;99.90
46590;DHT22;32313;48.722;9.362;2022-09-09T00:14:13;10.90;99.90
46590;DHT22;32313;48.722;9.362;2022-09-09T00:16:41;10.90;99.90
46590;DHT22;32313;48.722;9.362;2022-09-09T00:19:32;10.90;99.90
46590;DHT22;32313;48.722;9.362;2022-09-09T00:22:17;10.90;99.90
46590;DHT22;32313;48.722;9.362;2022-09-09T00:24:53;10.90;99.90
46590;DHT22;32313;48.722;9.362;2022-09-09T00:27:29;10.80;99.90
46590;DHT22;32313;48.722;9.362;2022-09-09T00:32:30;10.80;99.90
46590;DHT22;32313;48.722;9.362;2022-09-09T00:38:00;10.80;99.90
46590;DHT22;32313;48.722;9.362;2022-09-09T00:40:34;10.80;99.90
46590;DHT22;32313;48.722;9.362;2022-09-09T00:43:30;10.80;99.90
46590;DHT22;32313;48.722;9.362;2022-09-09T00:48:53;11.00;99.90
46590;DHT22;32313;48.722;9.362;2022-09-09T00:59:51;11.20;99.90
46590;DHT22;32313;48.722;9.362;2022-09-09T01:02:30;11.30;99.90
46590;DHT22;32313;48.722;9.362;2022-09-09T01:05:07;11.30;99.90
46590;DHT22;32313;48.722;9.362;2022-09-09T01:07:36;11.30;99.90
46590;DHT22;32313;48.722;9.362;2022-09-09T01:10:08;11.40;99.90
46590;DHT22;32313;48.722;9.362;2022-09-09T01:12:41;11.40;99.90
46590;DHT22;32313;48.722;9.362;2022-09-09T01:15:12;11.40;99.90
46590;DHT22;32313;48.722;9.362;2022-09-09T01:17:54;11.30;99.90
46590;DHT22;32313;48.722;9.362;2022-09-09T01:20:37;11.30;99.90
46590;DHT22;32313;48.722;9.362;2022-09-09T01:28:20;11.20;99.90
46590;DHT22;32313;48.722;9.362;2022-09-09T01:30:49;11.20;99.90
46590;DHT22;32313;48.722;9.362;2022-09-09T01:33:18;11.10;99.90
46590;DHT22;32313;48.722;9.362;2022-09-09T01:35:49;11.00;99.90
46590;DHT22;32313;48.722;9.362;2022-09-09T01:38:17;11.00;99.90
46590;DHT22;32313;48.722;9.362;2022-09-09T01:40:44;10.90;99.90
46590;DHT22;32313;48.722;9.362;2022-09-09T01:43:10;10.80;99.90
46590;DHT22;32313;48.722;9.362;2022-09-09T01:45:38;10.80;99.90
46590;DHT22;32313;48.722;9.362;2022-09-09T01:48:04;10.80;99.90
46590;DHT22;32313;48.722;9.362;2022-09-09T01:50:45;10.80;99.90
46590;DHT22;32313;48.722;9.362;2022-09-09T01:53:12;10.80;99.90
46590;DHT22;32313;48.722;9.362;2022-09-09T01:55:41;10.80;99.90
46590;DHT22;32313;48.722;9.362;2022-09-09T02:01:12;10.70;99.90
46590;DHT22;32313;48.722;9.362;2022-09-09T02:03:46;10.70;99.90
46590;DHT22;32313;48.722;9.362;2022-09-09T02:06:38;10.70;99.90
46590;DHT22;32313;48.722;9.362;2022-09-09T02:09:18;10.70;99.90
46590;DHT22;32313;48.722;9.362;2022-09-09T02:11:47;10.70;99.90
46590;DHT22;32313;48.722;9.362;2022-09-09T02:14:25;10.70;99.90
46590;DHT22;32313;48.722;9.362;2022-09-09T02:17:09;10.60;99.90
46590;DHT22;32313;48.722;9.362;2022-09-09T02:19:58;10.60;99.90
46590;DHT22;32313;48.722;9.362;2022-09-09T02:22:41;10.60;99.90
46590;DHT22;32313;48.722;9.362;2022-09-09T02:25:10;10.60;99.90
46590;DHT22;32313;48.722;9.362;2022-09-09T02:27:38;10.60;99.90
46590;DHT22;32313;48.722;9.362;2022-09-09T02:30:06;10.60;99.90
46590;DHT22;32313;48.722;9.362;2022-09-09T02:32:44;10.60;99.90
46590;DHT22;32313;48.722;9.362;2022-09-09T02:35:17;10.60;99.90
46590;DHT22;32313;48.722;9.362;2022-09-09T02:37:44;10.60;99.90
46590;DHT22;32313;48.722;9.362;2022-09-09T02:40:14;10.60;99.90
46590;DHT22;32313;48.722;9.362;2022-09-09T02:42:48;10.50;99.90
46590;DHT22;32313;48.722;9.362;2022-09-09T02:45:18;10.50;99.90
46590;DHT22;32313;48.722;9.362;2022-09-09T02:53:14;10.30;99.90
46590;DHT22;32313;48.722;9.362;2022-09-09T02:55:48;10.20;99.90
46590;DHT22;32313;48.722;9.362;2022-09-09T02:58:18;10.20;99.90
46590;DHT22;32313;48.722;9.362;2022-09-09T03:00:52;10.20;99.90
46590;DHT22;32313;48.722;9.362;2022-09-09T03:03:19;10.20;99.90
46590;DHT22;32313;48.722;9.362;2022-09-09T03:05:48;10.20;99.90
46590;DHT22;32313;48.722;9.362;2022-09-09T03:08:14;10.20;99.90
46590;DHT22;32313;48.722;9.362;2022-09-09T03:10:41;10.20;99.90
46590;DHT22;32313;48.722;9.362;2022-09-09T03:13:07;10.10;99.90
46590;DHT22;32313;48.722;9.362;2022-09-09T03:15:37;10.10;99.90
46590;DHT22;32313;48.722;9.362;2022-09-09T03:18:04;10.20;99.90
46590;DHT22;32313;48.722;9.362;2022-09-09T03:20:30;10.20;99.90
46590;DHT22;32313;48.722;9.362;2022-09-09T03:22:57;10.30;99.90
46590;DHT22;32313;48.722;9.362;2022-09-09T03:25:23;10.40;99.90
46590;DHT22;32313;48.722;9.362;2022-09-09T03:27:51;10.50;99.90
46590;DHT22;32313;48.722;9.362;2022-09-09T03:30:21;10.50;99.90
46590;DHT22;32313;48.722;9.362;2022-09-09T03:32:47;10.60;99.90
46590;DHT22;32313;48.722;9.362;2022-09-09T03:35:13;10.60;99.90
46590;DHT22;32313;48.722;9.362;2022-09-09T03:37:39;10.60;99.90
46590;DHT22;32313;48.722;9.362;2022-09-09T03:40:05;10.60;99.90
46590;DHT22;32313;48.722;9.362;2022-09-09T03:42:31;10.60;99.90
46590;DHT22;32313;48.722;9.362;2022-09-09T03:44:59;10.70;99.90
46590;DHT22;32313;48.722;9.362;2022-09-09T03:47:25;10.70;99.90
46590;DHT22;32313;48.722;9.362;2022-09-09T03:49:56;10.70;99.90
46590;DHT22;32313;48.722;9.362;2022-09-09T03:52:22;10.80;99.90
46590;DHT22;32313;48.722;9.362;2022-09-09T03:54:52;10.80;99.90
46590;DHT22;32313;48.722;9.362;2022-09-09T03:57:19;10.80;99.90
46590;DHT22;32313;48.722;9.362;2022-09-09T03:59:45;10.90;99.90
46590;DHT22;32313;48.722;9.362;2022-09-09T04:02:10;10.90;99.90
46590;DHT22;32313;48.722;9.362;2022-09-09T04:04:37;10.90;99.90
46590;DHT22;32313;48.722;9.362;2022-09-09T04:07:03;10.90;99.90
46590;DHT22;32313;48.722;9.362;2022-09-09T04:09:40;11.00;99.90
46590;DHT22;32313;48.722;9.362;2022-09-09T04:12:06;11.00;99.90
46590;DHT22;32313;48.722;9.362;2022-09-09T04:14:33;11.00;99.90
46590;DHT22;32313;48.722;9.362;2022-09-09T04:16:59;11.10;99.90
46590;DHT22;32313;48.722;9.362;2022-09-09T04:19:25;11.20;99.90
46590;DHT22;32313;48.722;9.362;2022-09-09T04:21:51;11.20;99.90
46590;DHT22;32313;48.722;9.362;2022-09-09T04:24:19;11.20;99.90
46590;DHT22;32313;48.722;9.362;2022-09-09T04:26:48;11.30;99.90
46590;DHT22;32313;48.722;9.362;2022-09-09T04:29:14;11.30;99.90
46590;DHT22;32313;48.722;9.362;2022-09-09T04:31:40;11.20;99.90
46590;DHT22;32313;48.722;9.362;2022-09-09T04:34:09;11.20;99.90
46590;DHT22;32313;48.722;9.362;2022-09-09T04:36:35;11.10;99.90
46590;DHT22;32313;48.722;9.362;2022-09-09T04:39:03;11.10;99.90
46590;DHT22;32313;48.722;9.362;2022-09-09T04:41:29;11.10;99.90
46590;DHT22;32313;48.722;9.362;2022-09-09T04:43:57;11.10;99.90
46590;DHT22;32313;48.722;9.362;2022-09-09T04:46:23;11.10;99.90
46590;DHT22;32313;48.722;9.362;2022-09-09T04:48:50;11.10;99.90
46590;DHT22;32313;48.722;9.362;2022-09-09T04:51:17;11.10;99.90
46590;DHT22;32313;48.722;9.362;2022-09-09T04:53:44;11.20;99.90
46590;DHT22;32313;48.722;9.362;2022-09-09T04:56:14;11.20;99.90
46590;DHT22;32313;48.722;9.362;2022-09-09T04:58:45;11.20;99.90
46590;DHT22;32313;48.722;9.362;2022-09-09T05:01:17;11.30;99.90
46590;DHT22;32313;48.722;9.362;2022-09-09T05:03:45;11.40;99.90
46590;DHT22;32313;48.722;9.362;2022-09-09T05:06:14;11.50;99.90
46590;DHT22;32313;48.722;9.362;2022-09-09T05:08:42;11.40;99.90
46590;DHT22;32313;48.722;9.362;2022-09-09T05:11:22;11.40;99.90
46590;DHT22;32313;48.722;9.362;2022-09-09T05:13:54;11.40;99.90
46590;DHT22;32313;48.722;9.362;2022-09-09T05:16:21;11.40;99.90
46590;DHT22;32313;48.722;9.362;2022-09-09T05:18:48;11.30;99.90
46590;DHT22;32313;48.722;9.362;2022-09-09T05:21:19;11.30;99.90
46590;DHT22;32313;48.722;9.362;2022-09-09T05:23:45;11.20;99.90
46590;DHT22;32313;48.722;9.362;2022-09-09T05:26:14;11.10;99.90
46590;DHT22;32313;48.722;9.362;2022-09-09T05:28:40;11.10;99.90
46590;DHT22;32313;48.722;9.362;2022-09-09T05:31:09;11.20;99.90
46590;DHT22;32313;48.722;9.362;2022-09-09T05:33:37;11.20;99.90
46590;DHT22;32313;48.722;9.362;2022-09-09T05:36:05;11.30;99.90
46590;DHT22;32313;48.722;9.362;2022-09-09T05:38:33;11.40;99.90
46590;DHT22;32313;48.722;9.362;2022-09-09T05:41:00;11.50;99.90
46590;DHT22;32313;48.722;9.362;2022-09-09T05:43:28;11.70;99.90
46590;DHT22;32313;48.722;9.362;2022-09-09T05:48:37;12.10;99.90
46590;DHT22;32313;48.722;9.362;2022-09-09T05:51:11;12.20;99.90
46590;DHT22;32313;48.722;9.362;2022-09-09T05:53:44;12.50;99.90
46590;DHT22;32313;48.722;9.362;2022-09-09T05:56:15;12.70;99.90
46590;DHT22;32313;48.722;9.362;2022-09-09T05:58:42;12.80;99.90
46590;DHT22;32313;48.722;9.362;2022-09-09T06:01:18;12.90;99.90
46590;DHT22;32313;48.722;9.362;2022-09-09T06:03:45;13.10;99.90
46590;DHT22;32313;48.722;9.362;2022-09-09T06:06:14;13.20;99.90
46590;DHT22;32313;48.722;9.362;2022-09-09T06:08:42;13.20;99.90
46590;DHT22;32313;48.722;9.362;2022-09-09T06:11:17;13.20;99.90
46590;DHT22;32313;48.722;9.362;2022-09-09T06:13:43;13.20;99.90
46590;DHT22;32313;48.722;9.362;2022-09-09T06:16:11;13.30;99.90
46590;DHT22;32313;48.722;9.362;2022-09-09T06:18:39;13.30;99.90
46590;DHT22;32313;48.722;9.362;2022-09-09T06:21:08;13.30;99.90
46590;DHT22;32313;48.722;9.362;2022-09-09T06:23:35;13.40;99.90
46590;DHT22;32313;48.722;9.362;2022-09-09T06:26:11;13.50;99.90
46590;DHT22;32313;48.722;9.362;2022-09-09T06:28:37;13.60;99.90
46590;DHT22;32313;48.722;9.362;2022-09-09T06:31:09;13.60;99.90
46590;DHT22;32313;48.722;9.362;2022-09-09T06:33:39;13.70;99.90
46590;DHT22;32313;48.722;9.362;2022-09-09T06:36:21;14.00;99.90
46590;DHT22;32313;48.722;9.362;2022-09-09T06:38:48;14.10;99.90
46590;DHT22;32313;48.722;9.362;2022-09-09T06:41:17;14.20;99.90
46590;DHT22;32313;48.722;9.362;2022-09-09T06:43:45;14.40;99.90
46590;DHT22;32313;48.722;9.362;2022-09-09T06:46:17;14.60;99.90
46590;DHT22;32313;48.722;9.362;2022-09-09T06:48:45;14.70;99.90
46590;DHT22;32313;48.722;9.362;2022-09-09T06:51:20;14.90;99.90
46590;DHT22;32313;48.722;9.362;2022-09-09T06:53:54;15.00;99.90
46590;DHT22;32313;48.722;9.362;2022-09-09T06:56:28;15.20;99.90
46590;DHT22;32313;48.722;9.362;2022-09-09T06:58:57;15.30;99.90
46590;DHT22;32313;48.722;9.362;2022-09-09T07:01:28;15.40;99.90
46590;DHT22;32313;48.722;9.362;2022-09-09T07:03:58;15.60;99.90
46590;DHT22;32313;48.722;9.362;2022-09-09T07:06:29;15.80;99.90
46590;DHT22;32313;48.722;9.362;2022-09-09T07:08:59;15.90;99.90
46590;DHT22;32313;48.722;9.362;2022-09-09T07:11:29;16.10;99.90
46590;DHT22;32313;48.722;9.362;2022-09-09T07:13:57;16.60;99.90
46590;DHT22;32313;48.722;9.362;2022-09-09T07:16:24;17.30;99.90
46590;DHT22;32313;48.722;9.362;2022-09-09T07:18:50;17.80;99.90
46590;DHT22;32313;48.722;9.362;2022-09-09T07:21:17;18.20;99.90
46590;DHT22;32313;48.722;9.362;2022-09-09T07:23:43;18.30;99.90
46590;DHT22;32313;48.722;9.362;2022-09-09T07:26:11;18.40;99.90
46590;DHT22;32313;48.722;9.362;2022-09-09T07:28:37;18.40;99.90
46590;DHT22;32313;48.722;9.362;2022-09-09T07:31:04;18.60;99.90
46590;DHT22;32313;48.722;9.362;2022-09-09T07:33:33;18.80;99.90
46590;DHT22;32313;48.722;9.362;2022-09-09T07:36:08;18.80;99.90
46590;DHT22;32313;48.722;9.362;2022-09-09T07:38:47;19.20;99.90
46590;DHT22;32313;48.722;9.362;2022-09-09T07:41:16;19.70;99.90
46590;DHT22;32313;48.722;9.362;2022-09-09T07:43:44;19.70;99.90
46590;DHT22;32313;48.722;9.362;2022-09-09T07:46:13;19.60;99.90
46590;DHT22;32313;48.722;9.362;2022-09-09T07:48:44;19.40;99.90
46590;DHT22;32313;48.722;9.362;2022-09-09T07:51:15;19.20;99.90
46590;DHT22;32313;48.722;9.362;2022-09-09T07:53:46;19.10;99.90
46590;DHT22;32313;48.722;9.362;2022-09-09T07:56:15;19.00;99.90
46590;DHT22;32313;48.722;9.362;2022-09-09T07:58:45;18.90;99.90
46590;DHT22;32313;48.722;9.362;2022-09-09T08:01:17;19.00;99.90
46590;DHT22;32313;48.722;9.362;2022-09-09T08:03:46;19.30;99.90
46590;DHT22;32313;48.722;9.362;2022-09-09T08:06:13;20.70;99.90
46590;DHT22;32313;48.722;9.362;2022-09-09T08:08:39;21.60;99.90
46590;DHT22;32313;48.722;9.362;2022-09-09T08:11:14;21.70;99.90
46590;DHT22;32313;48.722;9.362;2022-09-09T08:13:43;21.40;99.90
46590;DHT22;32313;48.722;9.362;2022-09-09T08:16:16;21.00;99.90
46590;DHT22;32313;48.722;9.362;2022-09-09T08:18:42;21.30;99.90
46590;DHT22;32313;48.722;9.362;2022-09-09T08:21:14;21.70;99.90
46590;DHT22;32313;48.722;9.362;2022-09-09T08:23:42;22.40;99.90
46590;DHT22;32313;48.722;9.362;2022-09-09T08:26:14;23.30;99.90
46590;DHT22;32313;48.722;9.362;2022-09-09T08:28:41;24.20;99.90
46590;DHT22;32313;48.722;9.362;2022-09-09T08:31:14;25.00;99.90
46590;DHT22;32313;48.722;9.362;2022-09-09T08:33:42;25.30;99.90
46590;DHT22;32313;48.722;9.362;2022-09-09T08:36:12;25.20;99.90
46590;DHT22;32313;48.722;9.362;2022-09-09T08:38:41;24.40;99.90
46590;DHT22;32313;48.722;9.362;2022-09-09T08:44:31;23.10;99.90
46590;DHT22;32313;48.722;9.362;2022-09-09T08:57:45;24.50;99.90
46590;DHT22;32313;48.722;9.362;2022-09-09T09:00:12;24.70;99.90
46590;DHT22;32313;48.722;9.362;2022-09-09T09:05:35;24.70;99.90
46590;DHT22;32313;48.722;9.362;2022-09-09T09:10:50;23.80;99.90
46590;DHT22;32313;48.722;9.362;2022-09-09T09:13:34;23.60;99.90
46590;DHT22;32313;48.722;9.362;2022-09-09T09:18:42;25.00;99.90
46590;DHT22;32313;48.722;9.362;2022-09-09T09:24:01;25.30;99.90
46590;DHT22;32313;48.722;9.362;2022-09-09T09:26:35;25.40;99.90
46590;DHT22;32313;48.722;9.362;2022-09-09T09:29:11;25.10;99.90
46590;DHT22;32313;48.722;9.362;2022-09-09T09:31:37;25.00;99.90
46590;DHT22;32313;48.722;9.362;2022-09-09T09:34:03;24.30;99.90
46590;DHT22;32313;48.722;9.362;2022-09-09T09:36:40;24.00;99.90
46590;DHT22;32313;48.722;9.362;2022-09-09T09:39:07;24.40;99.90
46590;DHT22;32313;48.722;9.362;2022-09-09T09:41:41;25.10;99.90
46590;DHT22;32313;48.722;9.362;2022-09-09T09:44:28;25.60;99.90
46590;DHT22;32313;48.722;9.362;2022-09-09T09:47:13;26.30;99.90
46590;DHT22;32313;48.722;9.362;2022-09-09T09:50:18;26.40;99.90
46590;DHT22;32313;48.722;9.362;2022-09-09T09:52:54;25.70;97.50
46590;DHT22;32313;48.722;9.362;2022-09-09T09:55:21;24.50;95.10
46590;DHT22;32313;48.722;9.362;2022-09-09T09:57:50;23.90;96.50
46590;DHT22;32313;48.722;9.362;2022-09-09T10:00:18;23.40;96.90
46590;DHT22;32313;48.722;9.362;2022-09-09T10:02:51;24.20;97.00
46590;DHT22;32313;48.722;9.362;2022-09-09T10:05:28;25.30;94.20
46590;DHT22;32313;48.722;9.362;2022-09-09T10:10:44;26.40;90.30
46590;DHT22;32313;48.722;9.362;2022-09-09T10:18:45;28.60;83.20
46590;DHT22;32313;48.722;9.362;2022-09-09T10:21:40;27.90;76.30
46590;DHT22;32313;48.722;9.362;2022-09-09T10:24:32;26.70;81.70
46590;DHT22;32313;48.722;9.362;2022-09-09T10:35:52;27.50;80.30
46590;DHT22;32313;48.722;9.362;2022-09-09T10:38:30;27.90;82.50
46590;DHT22;32313;48.722;9.362;2022-09-09T10:41:20;27.70;82.50
46590;DHT22;32313;48.722;9.362;2022-09-09T10:44:15;26.60;86.20
46590;DHT22;32313;48.722;9.362;2022-09-09T10:52:05;27.10;90.20
46590;DHT22;32313;48.722;9.362;2022-09-09T10:57:38;27.10;85.90
46590;DHT22;32313;48.722;9.362;2022-09-09T11:00:10;27.80;85.00
46590;DHT22;32313;48.722;9.362;2022-09-09T11:02:40;27.70;86.20
46590;DHT22;32313;48.722;9.362;2022-09-09T11:05:23;27.80;86.00
46590;DHT22;32313;48.722;9.362;2022-09-09T11:08:20;28.20;82.00
46590;DHT22;32313;48.722;9.362;2022-09-09T11:11:00;28.60;80.30
46590;DHT22;32313;48.722;9.362;2022-09-09T11:13:56;28.50;80.30
46590;DHT22;32313;48.722;9.362;2022-09-09T11:19:09;27.90;80.10
46590;DHT22;32313;48.722;9.362;2022-09-09T11:21:44;27.80;76.50
46590;DHT22;32313;48.722;9.362;2022-09-09T11:24:38;27.80;71.80
46590;DHT22;32313;48.722;9.362;2022-09-09T11:27:15;27.00;74.30
46590;DHT22;32313;48.722;9.362;2022-09-09T11:37:55;21.70;95.60
46590;DHT22;32313;48.722;9.362;2022-09-09T11:40:24;19.80;99.90
46590;DHT22;32313;48.722;9.362;2022-09-09T11:43:14;18.80;99.90
46590;DHT22;32313;48.722;9.362;2022-09-09T11:45:42;17.90;99.90
46590;DHT22;32313;48.722;9.362;2022-09-09T11:48:37;17.00;99.90
46590;DHT22;32313;48.722;9.362;2022-09-09T11:51:09;16.60;99.90
46590;DHT22;32313;48.722;9.362;2022-09-09T11:53:47;16.30;99.90
46590;DHT22;32313;48.722;9.362;2022-09-09T11:56:24;16.10;99.90
46590;DHT22;32313;48.722;9.362;2022-09-09T11:59:06;16.20;99.90
46590;DHT22;32313;48.722;9.362;2022-09-09T12:01:45;16.60;99.90
46590;DHT22;32313;48.722;9.362;2022-09-09T12:07:00;19.50;99.90
46590;DHT22;32313;48.722;9.362;2022-09-09T12:14:39;22.80;99.90
46590;DHT22;32313;48.722;9.362;2022-09-09T12:17:20;22.80;99.90
46590;DHT22;32313;48.722;9.362;2022-09-09T12:19:48;22.00;99.90
46590;DHT22;32313;48.722;9.362;2022-09-09T12:22:41;21.40;99.90
46590;DHT22;32313;48.722;9.362;2022-09-09T12:33:49;22.60;99.90
46590;DHT22;32313;48.722;9.362;2022-09-09T12:36:21;23.90;99.90
46590;DHT22;32313;48.722;9.362;2022-09-09T12:38:48;24.80;99.90
46590;DHT22;32313;48.722;9.362;2022-09-09T12:41:24;25.60;99.90
46590;DHT22;32313;48.722;9.362;2022-09-09T12:43:51;26.20;99.90
46590;DHT22;32313;48.722;9.362;2022-09-09T12:46:40;26.40;98.20
46590;DHT22;32313;48.722;9.362;2022-09-09T12:49:32;26.60;94.10
46590;DHT22;32313;48.722;9.362;2022-09-09T12:52:15;26.60;92.90
46590;DHT22;32313;48.722;9.362;2022-09-09T12:54:45;26.20;92.40
46590;DHT22;32313;48.722;9.362;2022-09-09T12:57:17;24.80;94.10
46590;DHT22;32313;48.722;9.362;2022-09-09T12:59:43;24.70;94.10
46590;DHT22;32313;48.722;9.362;2022-09-09T13:02:19;25.80;92.50
46590;DHT22;32313;48.722;9.362;2022-09-09T13:04:45;26.50;90.70
46590;DHT22;32313;48.722;9.362;2022-09-09T13:07:12;25.70;91.00
46590;DHT22;32313;48.722;9.362;2022-09-09T13:09:39;24.80;91.10
46590;DHT22;32313;48.722;9.362;2022-09-09T13:12:07;24.20;92.60
46590;DHT22;32313;48.722;9.362;2022-09-09T13:14:38;23.70;93.70
46590;DHT22;32313;48.722;9.362;2022-09-09T13:17:05;23.40;94.00
46590;DHT22;32313;48.722;9.362;2022-09-09T13:19:38;23.60;94.80
46590;DHT22;32313;48.722;9.362;2022-09-09T13:22:34;24.40;93.00
46590;DHT22;32313;48.722;9.362;2022-09-09T13:25:25;24.40;93.70
46590;DHT22;32313;48.722;9.362;2022-09-09T13:28:00;23.80;92.20
46590;DHT22;32313;48.722;9.362;2022-09-09T13:30:28;23.20;93.10
46590;DHT22;32313;48.722;9.362;2022-09-09T13:36:12;22.80;92.90
46590;DHT22;32313;48.722;9.362;2022-09-09T13:41:22;23.80;91.40
46590;DHT22;32313;48.722;9.362;2022-09-09T13:43:52;23.40;91.80
46590;DHT22;32313;48.722;9.362;2022-09-09T13:46:32;23.20;91.30
46590;DHT22;32313;48.722;9.362;2022-09-09T13:49:22;23.40;91.80
46590;DHT22;32313;48.722;9.362;2022-09-09T13:51:49;23.60;92.20
46590;DHT22;32313;48.722;9.362;2022-09-09T13:54:20;24.40;90.60
46590;DHT22;32313;48.722;9.362;2022-09-09T13:56:46;25.30;89.10
46590;DHT22;32313;48.722;9.362;2022-09-09T13:59:14;26.10;84.20
46590;DHT22;32313;48.722;9.362;2022-09-09T14:01:41;26.30;84.90
46590;DHT22;32313;48.722;9.362;2022-09-09T14:04:07;26.50;84.60
46590;DHT22;32313;48.722;9.362;2022-09-09T14:06:34;26.60;84.70
46590;DHT22;32313;48.722;9.362;2022-09-09T14:09:04;26.20;84.70
46590;DHT22;32313;48.722;9.362;2022-09-09T14:11:30;26.10;86.70
46590;DHT22;32313;48.722;9.362;2022-09-09T14:13:55;25.50;88.90
46590;DHT22;32313;48.722;9.362;2022-09-09T14:16:21;25.50;87.60
46590;DHT22;32313;48.722;9.362;2022-09-09T14:18:47;25.80;85.50
46590;DHT22;32313;48.722;9.362;2022-09-09T14:21:13;25.90;82.40
46590;DHT22;32313;48.722;9.362;2022-09-09T14:23:40;25.60;82.40
46590;DHT22;32313;48.722;9.362;2022-09-09T14:26:06;25.90;81.50
46590;DHT22;32313;48.722;9.362;2022-09-09T14:28:31;26.30;82.00
46590;DHT22;32313;48.722;9.362;2022-09-09T14:31:03;26.50;82.00
46590;DHT22;32313;48.722;9.362;2022-09-09T14:33:29;26.30;78.30
46590;DHT22;32313;48.722;9.362;2022-09-09T14:36:00;25.70;80.20
46590;DHT22;32313;48.722;9.362;2022-09-09T14:38:29;26.10;79.10
46590;DHT22;32313;48.722;9.362;2022-09-09T14:40:56;26.40;77.60
46590;DHT22;32313;48.722;9.362;2022-09-09T14:43:21;25.50;79.40
46590;DHT22;32313;48.722;9.362;2022-09-09T14:45:47;25.30;80.40
46590;DHT22;32313;48.722;9.362;2022-09-09T14:48:14;25.70;78.90
46590;DHT22;32313;48.722;9.362;2022-09-09T14:50:40;26.30;78.50
46590;DHT22;32313;48.722;9.362;2022-09-09T14:53:07;25.90;78.00
46590;DHT22;32313;48.722;9.362;2022-09-09T14:55:34;25.00;78.80
46590;DHT22;32313;48.722;9.362;2022-09-09T14:58:00;24.50;79.50
46590;DHT22;32313;48.722;9.362;2022-09-09T15:00:25;25.00;78.20
46590;DHT22;32313;48.722;9.362;2022-09-09T15:02:53;25.60;71.90
46590;DHT22;32313;48.722;9.362;2022-09-09T15:05:19;25.80;70.60
46590;DHT22;32313;48.722;9.362;2022-09-09T15:07:45;25.80;70.70
46590;DHT22;32313;48.722;9.362;2022-09-09T15:10:11;26.10;69.30
46590;DHT22;32313;48.722;9.362;2022-09-09T15:12:36;26.10;69.40
46590;DHT22;32313;48.722;9.362;2022-09-09T15:15:04;26.10;70.30
46590;DHT22;32313;48.722;9.362;2022-09-09T15:17:30;26.00;68.70
46590;DHT22;32313;48.722;9.362;2022-09-09T15:19:56;26.10;69.90
46590;DHT22;32313;48.722;9.362;2022-09-09T15:22:23;26.50;68.10
46590;DHT22;32313;48.722;9.362;2022-09-09T15:24:50;26.40;68.30
46590;DHT22;32313;48.722;9.362;2022-09-09T15:27:15;26.20;67.80
46590;DHT22;32313;48.722;9.362;2022-09-09T15:29:41;25.70;70.10
46590;DHT22;32313;48.722;9.362;2022-09-09T15:32:07;24.70;72.50
46590;DHT22;32313;48.722;9.362;2022-09-09T15:34:33;23.80;73.80
46590;DHT22;32313;48.722;9.362;2022-09-09T15:36:59;23.20;76.30
46590;DHT22;32313;48.722;9.362;2022-09-09T15:39:25;23.10;77.30
46590;DHT22;32313;48.722;9.362;2022-09-09T15:41:51;23.90;77.30
46590;DHT22;32313;48.722;9.362;2022-09-09T15:44:17;25.10;74.40
46590;DHT22;32313;48.722;9.362;2022-09-09T15:46:46;25.70;75.30
46590;DHT22;32313;48.722;9.362;2022-09-09T15:49:22;26.00;73.20
46590;DHT22;32313;48.722;9.362;2022-09-09T15:51:55;25.40;73.10
46590;DHT22;32313;48.722;9.362;2022-09-09T15:54:23;24.30;75.70
46590;DHT22;32313;48.722;9.362;2022-09-09T15:56:57;23.40;77.80
46590;DHT22;32313;48.722;9.362;2022-09-09T15:59:24;22.80;79.60
46590;DHT22;32313;48.722;9.362;2022-09-09T16:01:50;22.30;81.00
46590;DHT22;32313;48.722;9.362;2022-09-09T16:04:18;21.80;82.30
46590;DHT22;32313;48.722;9.362;2022-09-09T16:06:53;21.50;83.10
46590;DHT22;32313;48.722;9.362;2022-09-09T16:09:20;21.30;84.20
46590;DHT22;32313;48.722;9.362;2022-09-09T16:11:46;21.10;84.60
46590;DHT22;32313;48.722;9.362;2022-09-09T16:14:15;21.00;83.30
46590;DHT22;32313;48.722;9.362;2022-09-09T16:16:42;20.90;82.70
46590;DHT22;32313;48.722;9.362;2022-09-09T16:19:12;20.90;83.60
46590;DHT22;32313;48.722;9.362;2022-09-09T16:21:43;20.80;83.80
46590;DHT22;32313;48.722;9.362;2022-09-09T16:24:12;20.70;84.10
46590;DHT22;32313;48.722;9.362;2022-09-09T16:26:40;20.70;85.00
46590;DHT22;32313;48.722;9.362;2022-09-09T16:29:08;20.60;85.00
46590;DHT22;32313;48.722;9.362;2022-09-09T16:31:34;20.60;85.30
46590;DHT22;32313;48.722;9.362;2022-09-09T16:34:00;20.50;86.10
46590;DHT22;32313;48.722;9.362;2022-09-09T16:36:28;20.50;86.10
46590;DHT22;32313;48.722;9.362;2022-09-09T16:38:57;20.40;86.10
46590;DHT22;32313;48.722;9.362;2022-09-09T16:41:25;20.40;86.60
46590;DHT22;32313;48.722;9.362;2022-09-09T16:43:53;20.30;86.40
46590;DHT22;32313;48.722;9.362;2022-09-09T16:46:20;20.30;86.90
46590;DHT22;32313;48.722;9.362;2022-09-09T16:48:47;20.20;87.40
46590;DHT22;32313;48.722;9.362;2022-09-09T16:53:41;20.10;88.00
46590;DHT22;32313;48.722;9.362;2022-09-09T16:56:19;20.10;88.50
46590;DHT22;32313;48.722;9.362;2022-09-09T16:58:50;20.00;89.30
46590;DHT22;32313;48.722;9.362;2022-09-09T17:01:16;20.00;89.10
46590;DHT22;32313;48.722;9.362;2022-09-09T17:03:42;19.90;89.90
46590;DHT22;32313;48.722;9.362;2022-09-09T17:06:14;19.80;90.20
46590;DHT22;32313;48.722;9.362;2022-09-09T17:08:41;19.70;90.70
46590;DHT22;32313;48.722;9.362;2022-09-09T17:11:14;19.60;90.80
46590;DHT22;32313;48.722;9.362;2022-09-09T17:13:50;19.50;91.50
46590;DHT22;32313;48.722;9.362;2022-09-09T17:16:18;19.50;91.30
46590;DHT22;32313;48.722;9.362;2022-09-09T17:18:46;19.30;91.20
46590;DHT22;32313;48.722;9.362;2022-09-09T17:21:14;19.30;92.10
46590;DHT22;32313;48.722;9.362;2022-09-09T17:23:41;19.10;92.40
46590;DHT22;32313;48.722;9.362;2022-09-09T17:26:09;18.90;92.50
46590;DHT22;32313;48.722;9.362;2022-09-09T17:28:37;18.80;92.80
46590;DHT22;32313;48.722;9.362;2022-09-09T17:31:08;18.70;92.90
46590;DHT22;32313;48.722;9.362;2022-09-09T17:33:37;18.50;92.80
46590;DHT22;32313;48.722;9.362;2022-09-09T17:38:40;18.30;93.20
46590;DHT22;32313;48.722;9.362;2022-09-09T17:41:14;18.10;93.40
46590;DHT22;32313;48.722;9.362;2022-09-09T17:43:41;18.00;93.60
46590;DHT22;32313;48.722;9.362;2022-09-09T17:46:12;17.80;93.70
46590;DHT22;32313;48.722;9.362;2022-09-09T17:48:40;17.70;94.00
46590;DHT22;32313;48.722;9.362;2022-09-09T17:51:08;17.60;94.30
46590;DHT22;32313;48.722;9.362;2022-09-09T17:53:39;17.50;94.70
46590;DHT22;32313;48.722;9.362;2022-09-09T17:56:06;17.40;95.20
46590;DHT22;32313;48.722;9.362;2022-09-09T17:58:33;17.40;95.60